Time;durP1;ratioP1;P1;durP2;ratioP2;P2;SDS_P1;SDS_P2;PMS_P1;PMS_P2;Temp;Humidity;BMP_temperature;BMP_pressure;BME280_temperature;BME280_humidity;BME280_pressure;Samples;Min_cycle;Max_cycle;Signal;HPM_P1;HPM_P2
2022/08/11 00:01:16;;;;;;;8.07;4.53;;;21.40;51.90;;;;;;5049008;28;20580;-64
2022/08/11 00:03:48;;;;;;;40.90;25.42;;;21.30;52.00;;;;;;5039930;28;20188;-64
2022/08/11 00:06:22;;;;;;;15.68;9.88;;;21.30;52.10;;;;;;5050387;28;20186;-65
2022/08/11 00:08:50;;;;;;;19.13;12.73;;;21.30;52.30;;;;;;5050019;28;20174;-64
2022/08/11 00:11:16;;;;;;;9.40;6.82;;;21.20;52.40;;;;;;5050374;28;20384;-65
2022/08/11 00:13:47;;;;;;;5.35;4.25;;;21.20;52.40;;;;;;5050235;28;20170;-65
2022/08/11 00:16:20;;;;;;;3.42;3.10;;;21.10;52.40;;;;;;5050214;28;20177;-67
2022/08/11 00:18:50;;;;;;;2.55;2.28;;;21.10;52.40;;;;;;5051124;28;20188;-66
2022/08/11 00:21:17;;;;;;;2.60;2.38;;;21.10;52.60;;;;;;5050200;28;20311;-64
2022/08/11 00:24:02;;;;;;;2.60;2.20;;;21.10;52.70;;;;;;5046707;28;20177;-64
2022/08/11 00:26:28;;;;;;;2.65;1.92;;;21.10;52.70;;;;;;5044908;28;20702;-64
2022/08/11 00:28:55;;;;;;;2.42;1.90;;;21.20;52.60;;;;;;5050341;28;20189;-64
2022/08/11 00:31:26;;;;;;;4.13;2.10;;;21.20;52.60;;;;;;5050125;28;20557;-64
2022/08/11 00:33:53;;;;;;;3.53;1.83;;;21.10;52.80;;;;;;5050578;28;20181;-65
2022/08/11 00:36:22;;;;;;;3.10;2.08;;;21.00;52.90;;;;;;5049924;28;20277;-64
2022/08/11 00:38:51;;;;;;;5.10;2.83;;;20.90;52.60;;;;;;5049144;28;20180;-64
2022/08/11 00:41:44;;;;;;;7.50;3.38;;;20.80;53.10;;;;;;5050003;28;20220;-64
2022/08/11 00:44:43;;;;;;;5.57;2.55;;;20.90;53.40;;;;;;5048564;28;20173;-64
2022/08/11 00:47:17;;;;;;;5.07;2.67;;;20.80;52.90;;;;;;5051698;28;20209;-64
2022/08/11 00:49:55;;;;;;;5.30;2.40;;;20.80;53.10;;;;;;5054041;28;20319;-64
2022/08/11 00:52:49;;;;;;;5.57;3.05;;;20.80;53.10;;;;;;5045154;28;20184;-64
2022/08/11 00:55:41;;;;;;;5.57;3.30;;;20.70;53.10;;;;;;5049751;28;20273;-65
2022/08/11 00:58:45;;;;;;;7.97;4.18;;;20.70;53.50;;;;;;5050453;28;20177;-64
2022/08/11 01:01:16;;;;;;;14.70;5.97;;;20.70;53.50;;;;;;5053882;28;20237;-64
2022/08/11 01:04:18;;;;;;;9.40;4.00;;;20.60;53.60;;;;;;5054241;28;20189;-64
2022/08/11 01:07:16;;;;;;;7.22;3.78;;;20.60;53.60;;;;;;5053560;28;20180;-64
2022/08/11 01:09:50;;;;;;;6.75;2.70;;;20.60;53.80;;;;;;5053531;28;20177;-64
2022/08/11 01:12:43;;;;;;;4.05;2.10;;;20.60;54.30;;;;;;5053620;28;20560;-64
2022/08/11 01:15:47;;;;;;;2.75;2.20;;;20.50;54.60;;;;;;5041175;28;20178;-64
2022/08/11 01:18:54;;;;;;;2.72;2.08;;;20.50;55.10;;;;;;5053102;28;20185;-64
2022/08/11 01:21:29;;;;;;;3.13;2.13;;;20.40;55.30;;;;;;5053789;28;20223;-64
2022/08/11 01:24:16;;;;;;;2.65;2.17;;;20.30;55.40;;;;;;5053750;28;20208;-64
2022/08/11 01:27:12;;;;;;;3.58;2.10;;;20.30;55.40;;;;;;5053322;28;20279;-64
2022/08/11 01:30:07;;;;;;;3.97;2.13;;;20.30;55.70;;;;;;5053132;28;20223;-64
2022/08/11 01:33:22;;;;;;;2.55;2.22;;;20.20;56.00;;;;;;5053409;28;20181;-64
2022/08/11 01:36:40;;;;;;;1.80;1.70;;;20.20;56.20;;;;;;5034118;28;20212;-64
2022/08/11 01:39:36;;;;;;;3.55;1.90;;;20.10;56.40;;;;;;5045684;28;20578;-64
2022/08/11 01:45:29;;;;;;;2.92;1.98;;;19.90;56.80;;;;;;5044509;28;20181;-63
2022/08/11 01:48:04;;;;;;;3.72;1.98;;;19.70;57.30;;;;;;5053449;28;20181;-64
2022/08/11 01:50:33;;;;;;;2.80;1.95;;;19.70;57.80;;;;;;5053685;28;20173;-63
2022/08/11 01:53:19;;;;;;;3.00;2.10;;;19.60;57.90;;;;;;5053183;28;20181;-63
2022/08/11 01:56:20;;;;;;;2.55;2.15;;;19.60;58.00;;;;;;5053481;28;20183;-63
2022/08/11 01:59:10;;;;;;;3.70;1.90;;;19.60;58.00;;;;;;5052693;28;20239;-64
2022/08/11 02:01:41;;;;;;;3.50;1.95;;;19.60;58.00;;;;;;5052715;28;20312;-63
2022/08/11 02:04:21;;;;;;;1.73;1.63;;;19.60;58.00;;;;;;5053010;28;20289;-63
2022/08/11 02:06:55;;;;;;;3.20;2.10;;;19.60;58.00;;;;;;5051463;28;20657;-63
2022/08/11 02:09:45;;;;;;;2.08;1.88;;;19.60;58.00;;;;;;5051442;28;20176;-63
2022/08/11 02:12:16;;;;;;;2.40;2.20;;;19.60;58.00;;;;;;5052794;28;20178;-63
2022/08/11 02:14:53;;;;;;;2.30;2.10;;;19.50;58.10;;;;;;5053023;28;20234;-63
2022/08/11 02:17:37;;;;;;;2.30;2.10;;;19.50;58.30;;;;;;5052407;28;20185;-63
2022/08/11 02:23:38;;;;;;;2.35;2.15;;;19.50;58.30;;;;;;5046661;28;20189;-64
2022/08/11 02:26:34;;;;;;;3.40;2.05;;;19.50;58.50;;;;;;5052735;28;20185;-64
2022/08/11 02:29:33;;;;;;;2.15;1.95;;;19.50;58.40;;;;;;5047521;28;20679;-64
2022/08/11 02:35:27;;;;;;;72.65;45.35;;;19.50;58.40;;;;;;5051977;28;20181;-63
2022/08/11 02:38:11;;;;;;;29.02;19.05;;;19.40;58.50;;;;;;5051867;28;20185;-63
2022/08/11 02:44:21;;;;;;;13.82;9.65;;;19.40;58.80;;;;;;5051830;28;20673;-63
2022/08/11 02:47:13;;;;;;;10.30;6.57;;;19.30;58.90;;;;;;5032646;28;20193;-63
2022/08/11 02:49:53;;;;;;;3.80;3.38;;;19.30;59.00;;;;;;5051978;28;20254;-63
2022/08/11 02:52:25;;;;;;;5.25;3.85;;;19.20;59.20;;;;;;5051793;28;20173;-63
2022/08/11 02:55:21;;;;;;;2.88;2.60;;;19.20;59.20;;;;;;5050753;28;20181;-63
2022/08/11 02:58:10;;;;;;;27.25;16.85;;;19.10;59.10;;;;;;5050379;28;20640;-63
2022/08/11 03:01:01;;;;;;;43.53;27.67;;;19.10;59.20;;;;;;5051451;28;20609;-63
2022/08/11 03:03:45;;;;;;;31.70;19.88;;;19.10;59.30;;;;;;5051900;28;20184;-63
2022/08/11 03:06:46;;;;;;;13.55;9.45;;;19.10;59.40;;;;;;5051309;28;20196;-63
2022/08/11 03:09:45;;;;;;;8.40;5.70;;;19.10;59.60;;;;;;5035749;28;20197;-63
2022/08/11 03:18:27;;;;;;;4.45;3.08;;;18.90;59.50;;;;;;5038813;28;20189;-63
2022/08/11 03:21:14;;;;;;;6.97;2.90;;;18.90;59.40;;;;;;5051283;28;20236;-63
2022/08/11 03:24:00;;;;;;;3.13;2.58;;;18.90;59.50;;;;;;5050815;28;20185;-63
2022/08/11 03:26:46;;;;;;;3.58;2.08;;;18.90;59.80;;;;;;5035600;28;20239;-63
2022/08/11 03:29:26;;;;;;;3.65;2.65;;;18.80;60.00;;;;;;5050465;28;20192;-63
2022/08/11 03:32:00;;;;;;;6.65;2.83;;;18.80;60.20;;;;;;5051035;28;20189;-63
2022/08/11 03:34:29;;;;;;;8.90;6.53;;;18.80;59.90;;;;;;5050041;28;20172;-63
2022/08/11 03:37:07;;;;;;;4.40;3.60;;;18.80;60.00;;;;;;5050920;28;20193;-63
2022/08/11 03:39:53;;;;;;;5.15;3.63;;;18.80;59.80;;;;;;5047481;28;20639;-63
2022/08/11 03:42:46;;;;;;;3.20;2.42;;;18.80;59.90;;;;;;5044339;28;20255;-63
2022/08/11 03:45:24;;;;;;;3.70;3.00;;;18.90;59.80;;;;;;5050585;28;20181;-63
2022/08/11 03:47:59;;;;;;;5.53;3.17;;;18.90;59.70;;;;;;5050622;28;20173;-62
2022/08/11 03:50:49;;;;;;;4.88;2.58;;;18.90;59.80;;;;;;5051097;28;20511;-62
2022/08/11 03:53:38;;;;;;;4.22;2.55;;;18.90;60.00;;;;;;5050464;28;20552;-62
2022/08/11 03:56:31;;;;;;;3.95;2.53;;;18.80;60.40;;;;;;5050823;28;20169;-62
2022/08/11 03:59:16;;;;;;;2.95;2.58;;;18.80;60.40;;;;;;5050676;28;20535;-61
2022/08/11 04:02:06;;;;;;;2.80;2.22;;;19.00;60.00;;;;;;5051045;28;20308;-60
2022/08/11 04:04:59;;;;;;;4.13;2.30;;;19.00;59.80;;;;;;5040387;28;20283;-62
2022/08/11 04:07:46;;;;;;;5.53;2.15;;;19.10;60.00;;;;;;5047847;28;20185;-59
2022/08/11 04:10:41;;;;;;;2.50;2.30;;;19.10;59.80;;;;;;5049850;28;20566;-58
2022/08/11 04:13:36;;;;;;;201.80;121.55;;;19.10;60.00;;;;;;5047630;28;20182;-60
2022/08/11 04:16:28;;;;;;;56.13;34.85;;;19.10;60.00;;;;;;5049272;28;20185;-59
2022/08/11 04:19:20;;;;;;;22.05;15.20;;;19.00;60.00;;;;;;5050801;28;20252;-64
2022/08/11 04:22:00;;;;;;;9.30;5.70;;;18.90;60.40;;;;;;5052459;28;20668;-65
2022/08/11 04:25:04;;;;;;;7.82;5.07;;;19.00;60.40;;;;;;5055436;28;20173;-58
2022/08/11 04:27:51;;;;;;;7.80;3.50;;;19.00;60.40;;;;;;5055128;28;20754;-58
2022/08/11 04:30:33;;;;;;;10.02;5.90;;;19.00;60.10;;;;;;5055090;28;20200;-58
2022/08/11 04:33:37;;;;;;;41.08;27.30;;;19.00;60.30;;;;;;5054902;28;20177;-58
2022/08/11 04:37:30;;;;;;;48.13;30.15;;;19.10;60.20;;;;;;5044252;28;20256;-60
2022/08/11 04:39:43;;;;;;;11.38;8.82;;;19.10;60.40;;;;;;5054707;28;20188;-58
2022/08/11 04:45:38;;;;;;;64.30;41.72;;;19.00;60.00;;;;;;5054605;28;20618;-60
2022/08/11 05:03:52;;;;;;;7.30;4.10;;;19.20;60.20;;;;;;5046026;28;20193;-60
2022/08/11 05:07:10;;;;;;;4.13;3.08;;;19.40;59.90;;;;;;5034377;28;20300;-65
2022/08/11 05:10:02;;;;;;;6.15;3.08;;;19.60;59.50;;;;;;5034516;28;20244;-65
2022/08/11 05:12:35;;;;;;;4.00;2.55;;;19.90;58.90;;;;;;5038479;28;20277;-66
2022/08/11 05:35:27;;;;;;;7.70;2.78;;;22.90;53.10;;;;;;5039427;28;20543;-65
2022/08/11 05:57:30;;;;;;;4.50;2.03;;;24.30;50.40;;;;;;5054109;28;20192;-66
2022/08/11 06:00:09;;;;;;;8.13;2.60;;;24.50;50.30;;;;;;5053080;28;20240;-66
2022/08/11 06:02:49;;;;;;;5.78;2.20;;;24.50;50.00;;;;;;5053386;28;20178;-66
2022/08/11 06:05:16;;;;;;;8.27;2.30;;;24.50;50.00;;;;;;5041062;28;20177;-66
2022/08/11 06:07:43;;;;;;;8.02;2.05;;;24.60;50.20;;;;;;5052395;28;20189;-66
2022/08/11 06:10:09;;;;;;;9.15;2.33;;;24.90;49.90;;;;;;5053277;28;20181;-66
2022/08/11 06:12:36;;;;;;;4.53;2.03;;;25.00;49.50;;;;;;5053486;28;20178;-66
2022/08/11 06:15:10;;;;;;;4.88;2.20;;;25.30;49.30;;;;;;5053042;28;20209;-65
2022/08/11 06:17:46;;;;;;;6.75;2.13;;;25.50;49.00;;;;;;5053264;28;20634;-66
2022/08/11 06:20:14;;;;;;;8.65;2.03;;;26.20;48.60;;;;;;5052864;28;20256;-65
2022/08/11 06:22:44;;;;;;;5.65;1.95;;;26.60;47.50;;;;;;5053197;28;20273;-62
2022/08/11 06:25:10;;;;;;;2.78;1.90;;;27.10;46.80;;;;;;5053384;28;20204;-64
2022/08/11 06:27:38;;;;;;;2.65;1.95;;;27.40;46.00;;;;;;5053108;28;20490;-64
2022/08/11 06:30:15;;;;;;;4.38;2.20;;;27.70;45.50;;;;;;5052928;28;20174;-63
2022/08/11 06:32:43;;;;;;;4.65;2.10;;;27.80;45.30;;;;;;5053785;28;20250;-62
2022/08/11 06:35:45;;;;;;;2.90;2.00;;;28.10;45.00;;;;;;5053361;28;20220;-63
2022/08/11 06:38:15;;;;;;;4.28;2.10;;;28.50;44.30;;;;;;5029021;28;20181;-63
2022/08/11 06:44:15;;;;;;;3.22;2.00;;;29.50;43.20;;;;;;5052275;28;20234;-64
2022/08/11 06:46:50;;;;;;;5.30;2.55;;;30.10;42.40;;;;;;5032983;28;20551;-63
2022/08/11 06:52:06;;;;;;;2.83;1.80;;;30.40;41.40;;;;;;5033211;28;20204;-63
2022/08/11 06:54:37;;;;;;;3.67;1.90;;;30.70;41.20;;;;;;5032890;28;20190;-63
2022/08/11 07:02:42;;;;;;;4.53;2.03;;;32.00;39.90;;;;;;5032900;28;20193;-64
2022/08/11 07:05:21;;;;;;;3.08;2.00;;;32.20;39.40;;;;;;5032562;28;20637;-64
2022/08/11 07:16:52;;;;;;;2.90;1.98;;;33.50;37.90;;;;;;5032469;28;20172;-64
2022/08/11 07:30:45;;;;;;;2.10;1.90;;;34.40;37.10;;;;;;5032465;28;20181;-62
2022/08/11 07:33:17;;;;;;;4.63;2.10;;;34.70;36.50;;;;;;5032066;28;20181;-62
2022/08/11 07:35:50;;;;;;;2.75;2.08;;;34.50;36.30;;;;;;5032149;28;20185;-61
2022/08/11 07:38:23;;;;;;;3.50;2.20;;;34.70;36.10;;;;;;5045477;28;20177;-62
2022/08/11 07:40:49;;;;;;;2.50;2.00;;;34.80;36.50;;;;;;5051952;28;20221;-62
2022/08/11 07:43:15;;;;;;;3.17;2.00;;;35.00;36.10;;;;;;5051790;28;20699;-62
2022/08/11 07:54:06;;;;;;;2.17;1.85;;;34.60;35.90;;;;;;5051986;28;20575;-62
2022/08/11 07:56:37;;;;;;;3.83;2.20;;;34.30;36.00;;;;;;5051542;28;20623;-64
2022/08/11 08:18:26;;;;;;;6.00;2.05;;;33.20;37.80;;;;;;5051753;28;20179;-63
2022/08/11 08:20:54;;;;;;;3.25;2.10;;;33.20;38.20;;;;;;5051550;28;20420;-63
2022/08/11 08:23:31;;;;;;;4.50;2.08;;;33.50;37.80;;;;;;5051792;28;20624;-64
2022/08/11 08:26:00;;;;;;;2.53;2.00;;;33.70;37.90;;;;;;5051514;28;20197;-63
2022/08/11 08:28:27;;;;;;;3.47;2.30;;;33.90;37.20;;;;;;5051593;28;20632;-63
2022/08/11 08:30:55;;;;;;;3.30;1.98;;;34.00;37.60;;;;;;5051475;28;20184;-63
2022/08/11 08:33:26;;;;;;;2.42;1.85;;;33.90;37.00;;;;;;5051368;28;20192;-63
2022/08/11 08:36:10;;;;;;;3.95;2.20;;;33.80;37.20;;;;;;5051534;28;20181;-64
2022/08/11 08:38:56;;;;;;;2.42;2.03;;;33.30;37.50;;;;;;5051194;28;20224;-63
2022/08/11 08:41:26;;;;;;;2.55;2.25;;;33.30;38.80;;;;;;5050879;28;20228;-64
2022/08/11 08:43:56;;;;;;;3.83;2.00;;;33.80;38.40;;;;;;5051375;28;20479;-64
2022/08/11 08:46:31;;;;;;;3.88;2.15;;;34.00;38.10;;;;;;5051337;28;20169;-63
2022/08/11 08:49:00;;;;;;;3.28;2.08;;;34.20;38.40;;;;;;5051160;28;20184;-64
2022/08/11 08:51:35;;;;;;;2.45;2.20;;;34.00;37.30;;;;;;5051294;28;20165;-63
2022/08/11 08:54:07;;;;;;;3.13;2.17;;;34.10;38.10;;;;;;5051182;28;20184;-63
2022/08/11 08:56:38;;;;;;;2.17;2.00;;;34.40;37.20;;;;;;5051253;28;20628;-64
2022/08/11 08:59:04;;;;;;;5.43;1.98;;;34.30;37.40;;;;;;5051165;28;20188;-64
2022/08/11 09:01:39;;;;;;;2.90;2.10;;;34.00;37.30;;;;;;5050980;28;20259;-63
2022/08/11 09:04:08;;;;;;;3.95;2.10;;;33.60;38.00;;;;;;5051155;28;20231;-64
2022/08/11 09:06:38;;;;;;;2.40;2.20;;;33.70;39.60;;;;;;5051433;28;20280;-63
2022/08/11 09:09:07;;;;;;;3.40;2.40;;;33.90;38.70;;;;;;5054323;28;20177;-63
2022/08/11 09:17:22;;;;;;;3.70;2.20;;;34.00;38.00;;;;;;5055217;28;20188;-63
2022/08/11 09:19:57;;;;;;;2.70;2.08;;;34.30;38.30;;;;;;5055238;28;20181;-63
2022/08/11 09:27:55;;;;;;;3.30;1.90;;;33.50;36.30;;;;;;5054540;28;20202;-63
2022/08/11 09:30:24;;;;;;;2.15;1.95;;;32.90;36.70;;;;;;5054601;28;20185;-63
2022/08/11 09:32:56;;;;;;;2.60;1.85;;;32.30;37.20;;;;;;5054512;28;20201;-63
2022/08/11 09:35:25;;;;;;;2.00;1.80;;;32.00;36.90;;;;;;5054691;28;20182;-64
2022/08/11 09:40:37;;;;;;;3.88;1.85;;;31.70;37.50;;;;;;5054370;28;20266;-62
2022/08/11 09:45:52;;;;;;;4.55;1.80;;;32.10;37.60;;;;;;5053722;28;20288;-64
2022/08/11 09:48:20;;;;;;;2.47;2.10;;;32.30;37.40;;;;;;5053503;28;20327;-63
2022/08/11 09:50:52;;;;;;;3.92;1.90;;;32.60;36.50;;;;;;5053828;28;20189;-64
2022/08/11 09:53:20;;;;;;;1.80;1.70;;;32.30;35.90;;;;;;5053634;28;20178;-63
2022/08/11 09:55:46;;;;;;;4.28;2.00;;;32.00;35.60;;;;;;5053685;28;20188;-63
2022/08/11 09:58:14;;;;;;;1.75;1.65;;;31.60;36.50;;;;;;5053460;28;20240;-61
2022/08/11 10:00:41;;;;;;;2.65;1.80;;;31.50;37.30;;;;;;5053241;28;20263;-62
2022/08/11 10:03:14;;;;;;;4.05;1.90;;;31.60;37.40;;;;;;5050160;28;20229;-61
2022/08/11 10:08:32;;;;;;;6.05;2.00;;;32.00;36.50;;;;;;5053569;28;20212;-60
2022/08/11 10:10:58;;;;;;;2.40;1.90;;;31.80;36.50;;;;;;5053361;28;20177;-62
2022/08/11 10:13:32;;;;;;;2.90;1.90;;;32.00;36.50;;;;;;5053251;28;20264;-61
2022/08/11 10:16:02;;;;;;;2.50;1.83;;;32.00;36.00;;;;;;5053116;28;20172;-61
2022/08/11 10:18:48;;;;;;;6.45;1.80;;;31.90;35.90;;;;;;5053507;28;20176;-62
2022/08/11 10:21:38;;;;;;;2.08;1.83;;;32.00;35.80;;;;;;5052733;28;20212;-62
2022/08/11 10:26:57;;;;;;;1.48;1.38;;;32.20;34.00;;;;;;5053513;28;20207;-62
2022/08/11 10:35:00;;;;;;;1.88;1.70;;;31.80;34.60;;;;;;5053098;28;20188;-61
2022/08/11 10:37:26;;;;;;;2.30;1.58;;;31.90;34.20;;;;;;5053091;28;20264;-62
2022/08/11 10:39:55;;;;;;;1.70;1.60;;;32.10;34.50;;;;;;5052410;28;20213;-62
2022/08/11 10:47:33;;;;;;;2.13;1.50;;;32.50;33.90;;;;;;5045725;28;20590;-62
2022/08/11 10:47:56;;;;;;;3.90;1.50;;;32.70;34.10;;;;;;5051597;28;20189;-62
2022/08/11 10:58:44;;;;;;;2.58;1.70;;;32.50;33.20;;;;;;5052696;28;20208;-62
2022/08/11 11:01:10;;;;;;;1.55;1.45;;;32.50;32.80;;;;;;5052156;28;20228;-62
2022/08/11 11:03:37;;;;;;;1.70;1.55;;;32.50;32.60;;;;;;5052218;28;20192;-62
2022/08/11 11:06:09;;;;;;;1.55;1.45;;;32.60;33.10;;;;;;5052355;28;20185;-62
2022/08/11 11:08:53;;;;;;;4.25;1.70;;;32.50;32.60;;;;;;5032598;28;20174;-62
2022/08/11 11:11:22;;;;;;;3.58;1.75;;;32.50;32.60;;;;;;5033833;28;20178;-62
2022/08/11 11:19:24;;;;;;;1.45;1.35;;;32.00;33.40;;;;;;5052443;28;20223;-62
2022/08/11 11:21:53;;;;;;;2.85;1.33;;;32.30;33.60;;;;;;5051914;28;20213;-59
2022/08/11 11:24:32;;;;;;;4.20;1.77;;;32.40;32.00;;;;;;5052166;28;20165;-62
2022/08/11 11:27:25;;;;;;;1.50;1.35;;;32.20;32.00;;;;;;5051936;28;20220;-62
2022/08/11 11:30:04;;;;;;;1.48;1.38;;;32.20;32.30;;;;;;5052085;28;20636;-62
2022/08/11 11:32:55;;;;;;;1.60;1.50;;;32.30;32.40;;;;;;5051708;28;20663;-61
2022/08/11 11:35:28;;;;;;;2.95;1.55;;;32.20;32.50;;;;;;5051995;28;20180;-61
2022/08/11 11:37:56;;;;;;;2.13;1.80;;;32.30;32.70;;;;;;5050111;28;20537;-61
2022/08/11 11:40:22;;;;;;;2.47;1.70;;;32.40;32.30;;;;;;5051864;28;20205;-62
2022/08/11 11:42:50;;;;;;;2.90;1.48;;;32.30;31.90;;;;;;5051787;28;20192;-61
2022/08/11 11:45:21;;;;;;;1.67;1.58;;;32.30;31.80;;;;;;5051879;28;20185;-61
2022/08/11 11:47:51;;;;;;;1.50;1.40;;;32.30;31.80;;;;;;5051729;28;20192;-61
2022/08/11 11:50:25;;;;;;;1.70;1.60;;;32.40;32.10;;;;;;5051809;28;20188;-62
2022/08/11 11:52:52;;;;;;;2.90;1.50;;;32.70;32.20;;;;;;5050373;28;20188;-62
2022/08/11 11:55:19;;;;;;;3.85;1.60;;;33.10;31.90;;;;;;5051702;28;20188;-62
2022/08/11 12:03:16;;;;;;;5.40;1.70;;;33.30;31.40;;;;;;5046652;28;20192;-62
2022/08/11 12:05:43;;;;;;;1.98;1.77;;;33.10;30.90;;;;;;5034129;28;20182;-62
2022/08/11 12:08:18;;;;;;;1.50;1.40;;;33.10;31.40;;;;;;5051533;28;20192;-62
2022/08/11 12:13:49;;;;;;;1.50;1.40;;;33.30;31.20;;;;;;5051737;28;20243;-63
2022/08/11 12:16:15;;;;;;;2.85;1.60;;;33.30;30.90;;;;;;5050471;28;20525;-62
2022/08/11 12:18:44;;;;;;;3.53;1.50;;;33.10;31.10;;;;;;5051275;28;20275;-62
2022/08/11 12:21:10;;;;;;;1.50;1.40;;;33.10;31.40;;;;;;5051162;28;20328;-62
2022/08/11 12:29:10;;;;;;;1.65;1.45;;;32.90;31.80;;;;;;5032020;28;20182;-63
2022/08/11 12:31:38;;;;;;;2.05;1.42;;;32.90;31.70;;;;;;5044868;28;20637;-63
2022/08/11 12:34:12;;;;;;;1.35;1.30;;;33.10;31.80;;;;;;5051339;28;20268;-63
2022/08/11 12:36:40;;;;;;;3.15;1.48;;;33.10;31.50;;;;;;5051097;28;20196;-63
2022/08/11 12:39:09;;;;;;;1.70;1.60;;;33.00;31.50;;;;;;5051056;28;20188;-63
2022/08/11 12:47:19;;;;;;;1.80;1.60;;;32.40;32.10;;;;;;5046028;28;20274;-65
2022/08/11 12:52:50;;;;;;;1.67;1.50;;;32.30;31.90;;;;;;5055112;28;20655;-64
2022/08/11 12:58:14;;;;;;;2.75;1.95;;;32.30;32.40;;;;;;5055052;28;20212;-63
2022/08/11 12:58:16;;;;;;;2.20;1.27;;;32.30;32.40;;;;;;5054575;28;20232;-63
2022/08/11 13:06:18;;;;;;;1.75;1.48;;;32.50;31.80;;;;;;5054202;28;20216;-62
2022/08/11 13:08:45;;;;;;;3.63;1.60;;;32.20;31.90;;;;;;5053938;28;20243;-63
2022/08/11 13:13:56;;;;;;;1.60;1.50;;;32.30;32.80;;;;;;5049189;28;20716;-64
2022/08/11 13:16:25;;;;;;;2.72;1.80;;;32.40;32.40;;;;;;5054497;28;20625;-63
2022/08/11 13:18:51;;;;;;;1.50;1.40;;;32.40;32.00;;;;;;5054439;28;20550;-63
2022/08/11 13:21:17;;;;;;;3.00;1.50;;;32.50;32.00;;;;;;5053868;28;20300;-63
2022/08/11 13:23:43;;;;;;;5.82;1.95;;;32.70;31.50;;;;;;5052369;28;20188;-64
2022/08/11 13:26:10;;;;;;;4.10;1.50;;;32.70;31.50;;;;;;5054155;28;20177;-64
2022/08/11 13:28:37;;;;;;;4.55;1.63;;;32.70;31.70;;;;;;5054018;28;20185;-64
2022/08/11 13:31:10;;;;;;;2.33;1.42;;;32.60;31.90;;;;;;5052868;28;20196;-65
2022/08/11 13:33:46;;;;;;;3.65;1.70;;;32.60;31.80;;;;;;5054002;28;20192;-65
2022/08/11 13:36:14;;;;;;;2.47;1.40;;;32.40;31.90;;;;;;5052566;28;20177;-64
2022/08/11 13:38:42;;;;;;;2.92;1.70;;;32.30;32.00;;;;;;5051638;28;20735;-65
2022/08/11 13:41:37;;;;;;;1.50;1.40;;;32.30;31.50;;;;;;5052029;28;20303;-64
2022/08/11 13:43:55;;;;;;;1.85;1.25;;;32.40;31.20;;;;;;5052864;28;20181;-65
2022/08/11 13:46:23;;;;;;;1.70;1.40;;;32.40;31.00;;;;;;5053102;28;20186;-64
2022/08/11 13:48:49;;;;;;;1.63;1.40;;;32.40;30.70;;;;;;5051965;28;20181;-65
2022/08/11 13:51:34;;;;;;;1.60;1.50;;;32.30;30.90;;;;;;5053039;28;20264;-65
2022/08/11 13:54:03;;;;;;;1.60;1.48;;;32.20;30.90;;;;;;5052300;28;20628;-66
2022/08/11 13:56:30;;;;;;;2.65;1.55;;;32.30;31.90;;;;;;5053397;28;20254;-65
2022/08/11 13:58:57;;;;;;;1.77;1.65;;;32.30;30.80;;;;;;5052882;28;20174;-65
2022/08/11 14:01:29;;;;;;;1.40;1.30;;;32.30;30.90;;;;;;5052879;28;20232;-65
2022/08/11 14:04:02;;;;;;;3.10;1.38;;;32.30;31.10;;;;;;5048071;28;20276;-66
2022/08/11 14:06:28;;;;;;;1.77;1.60;;;32.40;31.30;;;;;;5052661;28;20193;-65
2022/08/11 14:08:54;;;;;;;3.88;1.83;;;32.50;31.30;;;;;;5062781;28;20263;-65
2022/08/11 14:14:09;;;;;;;6.50;1.98;;;32.60;30.80;;;;;;5060645;28;20242;-66
2022/08/11 14:16:41;;;;;;;1.75;1.65;;;32.30;30.70;;;;;;5052979;28;20540;-65
2022/08/11 14:19:12;;;;;;;2.33;1.90;;;32.20;30.90;;;;;;5052714;28;20280;-65
2022/08/11 14:24:26;;;;;;;2.28;1.85;;;32.00;31.30;;;;;;5063851;28;20841;-65
2022/08/11 14:26:52;;;;;;;1.98;1.77;;;31.90;31.50;;;;;;5052778;28;20268;-65
2022/08/11 14:29:20;;;;;;;1.65;1.55;;;31.80;31.50;;;;;;5056901;28;20265;-65
2022/08/11 14:31:57;;;;;;;4.00;1.98;;;31.70;31.40;;;;;;5058623;28;20174;-65
2022/08/11 14:34:27;;;;;;;3.70;1.63;;;31.70;31.70;;;;;;5052127;28;20202;-64
2022/08/11 14:36:59;;;;;;;2.35;1.80;;;31.80;31.90;;;;;;5061915;28;20177;-64
2022/08/11 14:39:27;;;;;;;1.83;1.50;;;31.80;31.10;;;;;;5052165;28;20185;-66
2022/08/11 14:47:03;;;;;;;2.88;1.52;;;31.70;31.30;;;;;;5032931;28;20197;-66
2022/08/11 14:47:51;;;;;;;2.58;1.50;;;31.70;31.20;;;;;;5051614;28;20184;-66
2022/08/11 14:50:22;;;;;;;2.45;1.50;;;31.60;31.70;;;;;;5049650;28;20230;-66
2022/08/11 14:52:53;;;;;;;2.90;1.38;;;31.60;31.60;;;;;;5051829;28;20251;-66
2022/08/11 14:58:09;;;;;;;1.92;1.75;;;31.40;31.60;;;;;;5051464;28;20196;-65
2022/08/11 15:00:35;;;;;;;2.28;1.52;;;31.40;31.80;;;;;;5050406;28;20228;-65
2022/08/11 15:03:10;;;;;;;1.50;1.40;;;31.50;31.90;;;;;;5051592;28;20243;-65
2022/08/11 15:05:46;;;;;;;1.50;1.40;;;31.50;31.40;;;;;;5050908;28;20379;-66
2022/08/11 15:08:14;;;;;;;2.80;1.30;;;31.40;31.50;;;;;;5039659;28;20192;-66
2022/08/11 15:10:40;;;;;;;2.78;1.40;;;31.40;31.90;;;;;;5051204;28;20185;-65
2022/08/11 15:13:06;;;;;;;2.53;1.55;;;31.40;31.40;;;;;;5051406;28;20177;-67
2022/08/11 15:18:22;;;;;;;1.92;1.38;;;31.40;31.40;;;;;;5051754;28;20223;-65
2022/08/11 15:37:25;;;;;;;2.42;1.40;;;31.20;31.90;;;;;;5051332;28;20235;-63
2022/08/11 15:37:34;;;;;;;1.58;1.38;;;30.90;32.20;;;;;;5050595;28;20609;-63
2022/08/11 15:45:50;;;;;;;4.20;2.05;;;31.00;32.20;;;;;;5051706;28;20187;-62
2022/08/11 15:48:43;;;;;;;1.63;1.52;;;30.90;31.90;;;;;;5051441;28;20177;-62
2022/08/11 15:51:12;;;;;;;2.63;1.45;;;30.80;32.30;;;;;;5041187;28;20186;-62
2022/08/11 15:53:53;;;;;;;3.97;1.45;;;30.80;32.10;;;;;;5051822;28;20640;-63
2022/08/11 15:56:22;;;;;;;1.70;1.60;;;30.80;32.30;;;;;;5051029;28;20189;-63
2022/08/11 16:04:25;;;;;;;1.98;1.50;;;30.80;32.90;;;;;;5050549;28;20235;-62
2022/08/11 16:07:10;;;;;;;1.90;1.60;;;30.80;32.90;;;;;;5050990;28;20185;-62
2022/08/11 16:09:48;;;;;;;2.42;1.90;;;30.80;33.20;;;;;;5051025;28;20178;-63
2022/08/11 16:12:28;;;;;;;2.25;1.70;;;30.70;33.40;;;;;;5051067;28;20687;-62
2022/08/11 16:17:47;;;;;;;3.90;1.80;;;30.70;33.40;;;;;;5035219;28;20181;-60
2022/08/11 16:20:18;;;;;;;1.55;1.45;;;30.60;33.30;;;;;;5054899;28;20727;-62
2022/08/11 16:22:46;;;;;;;2.38;2.08;;;30.50;33.40;;;;;;5055487;28;20189;-63
2022/08/11 16:25:15;;;;;;;4.60;1.70;;;30.50;33.60;;;;;;5055500;28;20582;-61
2022/08/11 16:27:45;;;;;;;2.40;1.80;;;30.50;33.70;;;;;;5054980;28;20205;-62
2022/08/11 16:30:13;;;;;;;1.70;1.60;;;30.40;33.90;;;;;;5055691;28;20181;-63
2022/08/11 16:32:42;;;;;;;3.83;1.67;;;30.40;33.70;;;;;;5050023;28;20247;-63
2022/08/11 16:40:43;;;;;;;2.15;1.60;;;30.20;33.90;;;;;;5055566;28;20203;-63
2022/08/11 16:48:47;;;;;;;2.13;1.90;;;30.00;34.50;;;;;;5055585;28;20193;-62
2022/08/11 16:51:13;;;;;;;3.45;2.10;;;30.00;34.60;;;;;;5055152;28;20257;-63
2022/08/11 16:53:43;;;;;;;2.13;1.60;;;30.00;34.40;;;;;;5055238;28;20212;-63
2022/08/11 16:56:15;;;;;;;2.35;1.73;;;29.90;34.50;;;;;;5054939;28;20196;-63
2022/08/11 17:01:27;;;;;;;2.03;1.60;;;29.80;34.70;;;;;;5054682;28;20274;-63
2022/08/11 17:18:50;;;;;;;1.60;1.50;;;29.50;34.50;;;;;;5049784;28;20679;-63
2022/08/11 17:24:23;;;;;;;2.47;1.85;;;29.40;34.60;;;;;;5054963;28;20192;-63
2022/08/11 17:26:58;;;;;;;5.40;1.50;;;29.40;34.70;;;;;;5054457;28;20196;-63
2022/08/11 17:29:38;;;;;;;3.20;1.45;;;29.40;34.90;;;;;;5053763;28;20177;-63
2022/08/11 17:37:40;;;;;;;2.38;1.70;;;29.20;34.80;;;;;;5054593;28;20200;-63
2022/08/11 17:40:08;;;;;;;1.80;1.70;;;29.10;34.80;;;;;;5053964;28;20696;-62
2022/08/11 17:48:26;;;;;;;1.55;1.40;;;28.90;35.10;;;;;;5054144;28;20184;-62
2022/08/11 17:51:07;;;;;;;2.28;1.90;;;28.90;35.30;;;;;;5054168;28;20224;-63
2022/08/11 18:04:50;;;;;;;3.17;1.77;;;28.60;35.60;;;;;;5053997;28;20214;-63
